sensor_id;sensor_type;location;lat;lon;timestamp;P1;durP1;ratioP1;P2;durP2;ratioP2
12433;SDS011;6281;49.038;8.372;2023-03-01T00:02:04;13.10;;;8.10;;
12433;SDS011;6281;49.038;8.372;2023-03-01T00:04:32;13.30;;;8.27;;
12433;SDS011;6281;49.038;8.372;2023-03-01T00:07:00;13.70;;;8.07;;
12433;SDS011;6281;49.038;8.372;2023-03-01T00:09:29;12.67;;;7.97;;
12433;SDS011;6281;49.038;8.372;2023-03-01T00:11:56;11.13;;;7.77;;
12433;SDS011;6281;49.038;8.372;2023-03-01T00:14:23;11.23;;;8.00;;
12433;SDS011;6281;49.038;8.372;2023-03-01T00:16:49;12.00;;;8.13;;
12433;SDS011;6281;49.038;8.372;2023-03-01T00:19:17;12.47;;;8.23;;
12433;SDS011;6281;49.038;8.372;2023-03-01T00:24:45;11.97;;;7.53;;
12433;SDS011;6281;49.038;8.372;2023-03-01T00:27:12;14.53;;;8.23;;
12433;SDS011;6281;49.038;8.372;2023-03-01T00:29:38;11.27;;;7.77;;
12433;SDS011;6281;49.038;8.372;2023-03-01T00:32:05;12.13;;;7.87;;
12433;SDS011;6281;49.038;8.372;2023-03-01T00:36:59;12.87;;;8.33;;
12433;SDS011;6281;49.038;8.372;2023-03-01T00:39:30;12.27;;;8.27;;
12433;SDS011;6281;49.038;8.372;2023-03-01T00:41:59;13.23;;;7.90;;
12433;SDS011;6281;49.038;8.372;2023-03-01T00:44:26;14.27;;;8.40;;
12433;SDS011;6281;49.038;8.372;2023-03-01T00:46:53;14.73;;;8.80;;
12433;SDS011;6281;49.038;8.372;2023-03-01T00:49:20;12.57;;;8.17;;
12433;SDS011;6281;49.038;8.372;2023-03-01T00:51:49;14.17;;;9.07;;
12433;SDS011;6281;49.038;8.372;2023-03-01T00:54:16;13.37;;;9.00;;
12433;SDS011;6281;49.038;8.372;2023-03-01T00:56:45;10.57;;;7.67;;
12433;SDS011;6281;49.038;8.372;2023-03-01T00:59:14;11.37;;;8.20;;
12433;SDS011;6281;49.038;8.372;2023-03-01T01:01:41;16.30;;;8.13;;
12433;SDS011;6281;49.038;8.372;2023-03-01T01:04:08;12.87;;;8.07;;
12433;SDS011;6281;49.038;8.372;2023-03-01T01:06:37;12.63;;;8.20;;
12433;SDS011;6281;49.038;8.372;2023-03-01T01:09:07;13.80;;;8.17;;
12433;SDS011;6281;49.038;8.372;2023-03-01T01:11:42;12.07;;;8.03;;
12433;SDS011;6281;49.038;8.372;2023-03-01T01:14:10;13.30;;;8.53;;
12433;SDS011;6281;49.038;8.372;2023-03-01T01:16:38;14.27;;;8.63;;
12433;SDS011;6281;49.038;8.372;2023-03-01T01:19:05;15.90;;;8.37;;
12433;SDS011;6281;49.038;8.372;2023-03-01T01:21:33;14.07;;;8.67;;
12433;SDS011;6281;49.038;8.372;2023-03-01T01:23:59;11.67;;;7.90;;
12433;SDS011;6281;49.038;8.372;2023-03-01T01:26:29;13.10;;;8.73;;
12433;SDS011;6281;49.038;8.372;2023-03-01T01:28:58;14.63;;;8.77;;
12433;SDS011;6281;49.038;8.372;2023-03-01T01:31:26;14.50;;;8.77;;
12433;SDS011;6281;49.038;8.372;2023-03-01T01:33:55;12.00;;;8.83;;
12433;SDS011;6281;49.038;8.372;2023-03-01T01:36:22;13.83;;;8.60;;
12433;SDS011;6281;49.038;8.372;2023-03-01T01:38:49;12.73;;;8.57;;
12433;SDS011;6281;49.038;8.372;2023-03-01T01:41:16;15.27;;;8.13;;
12433;SDS011;6281;49.038;8.372;2023-03-01T01:43:45;14.30;;;8.97;;
12433;SDS011;6281;49.038;8.372;2023-03-01T01:46:16;13.17;;;8.20;;
12433;SDS011;6281;49.038;8.372;2023-03-01T01:48:52;13.70;;;8.40;;
12433;SDS011;6281;49.038;8.372;2023-03-01T01:51:24;12.43;;;7.67;;
12433;SDS011;6281;49.038;8.372;2023-03-01T01:53:55;12.73;;;9.03;;
12433;SDS011;6281;49.038;8.372;2023-03-01T01:56:25;13.57;;;8.77;;
12433;SDS011;6281;49.038;8.372;2023-03-01T01:58:54;13.33;;;8.53;;
12433;SDS011;6281;49.038;8.372;2023-03-01T02:01:22;12.80;;;8.53;;
12433;SDS011;6281;49.038;8.372;2023-03-01T02:03:49;13.13;;;8.83;;
12433;SDS011;6281;49.038;8.372;2023-03-01T02:06:19;15.70;;;8.87;;
12433;SDS011;6281;49.038;8.372;2023-03-01T02:08:49;14.03;;;8.30;;
12433;SDS011;6281;49.038;8.372;2023-03-01T02:11:18;14.57;;;8.97;;
12433;SDS011;6281;49.038;8.372;2023-03-01T02:13:47;14.57;;;9.10;;
12433;SDS011;6281;49.038;8.372;2023-03-01T02:16:15;13.23;;;8.90;;
12433;SDS011;6281;49.038;8.372;2023-03-01T02:18:43;14.07;;;8.70;;
12433;SDS011;6281;49.038;8.372;2023-03-01T02:21:26;14.90;;;9.37;;
12433;SDS011;6281;49.038;8.372;2023-03-01T02:24:05;15.00;;;8.80;;
12433;SDS011;6281;49.038;8.372;2023-03-01T02:26:42;13.10;;;9.00;;
12433;SDS011;6281;49.038;8.372;2023-03-01T02:29:15;12.50;;;8.53;;
12433;SDS011;6281;49.038;8.372;2023-03-01T02:31:42;11.37;;;8.07;;
12433;SDS011;6281;49.038;8.372;2023-03-01T02:34:09;13.93;;;9.50;;
12433;SDS011;6281;49.038;8.372;2023-03-01T02:36:39;13.40;;;9.17;;
12433;SDS011;6281;49.038;8.372;2023-03-01T02:39:12;17.30;;;9.37;;
12433;SDS011;6281;49.038;8.372;2023-03-01T02:41:44;12.13;;;8.30;;
12433;SDS011;6281;49.038;8.372;2023-03-01T02:44:15;13.60;;;8.60;;
12433;SDS011;6281;49.038;8.372;2023-03-01T02:46:43;18.53;;;9.20;;
12433;SDS011;6281;49.038;8.372;2023-03-01T02:49:21;14.60;;;9.70;;
12433;SDS011;6281;49.038;8.372;2023-03-01T02:51:52;16.97;;;9.20;;
12433;SDS011;6281;49.038;8.372;2023-03-01T02:54:33;17.67;;;9.63;;
12433;SDS011;6281;49.038;8.372;2023-03-01T02:57:06;18.47;;;10.83;;
12433;SDS011;6281;49.038;8.372;2023-03-01T02:59:36;19.17;;;10.87;;
12433;SDS011;6281;49.038;8.372;2023-03-01T03:02:05;21.27;;;11.53;;
12433;SDS011;6281;49.038;8.372;2023-03-01T03:04:32;18.13;;;10.27;;
12433;SDS011;6281;49.038;8.372;2023-03-01T03:06:59;20.83;;;11.03;;
12433;SDS011;6281;49.038;8.372;2023-03-01T03:09:26;19.23;;;10.90;;
12433;SDS011;6281;49.038;8.372;2023-03-01T03:11:53;15.47;;;9.27;;
12433;SDS011;6281;49.038;8.372;2023-03-01T03:14:20;19.80;;;11.07;;
12433;SDS011;6281;49.038;8.372;2023-03-01T03:16:49;16.17;;;9.90;;
12433;SDS011;6281;49.038;8.372;2023-03-01T03:19:17;15.57;;;8.90;;
12433;SDS011;6281;49.038;8.372;2023-03-01T03:21:46;14.67;;;8.87;;
12433;SDS011;6281;49.038;8.372;2023-03-01T03:24:14;16.60;;;9.77;;
12433;SDS011;6281;49.038;8.372;2023-03-01T03:26:42;15.23;;;9.50;;
12433;SDS011;6281;49.038;8.372;2023-03-01T03:29:09;15.83;;;9.90;;
12433;SDS011;6281;49.038;8.372;2023-03-01T03:31:36;16.73;;;9.87;;
12433;SDS011;6281;49.038;8.372;2023-03-01T03:34:04;15.77;;;9.77;;
12433;SDS011;6281;49.038;8.372;2023-03-01T03:36:31;15.63;;;9.63;;
12433;SDS011;6281;49.038;8.372;2023-03-01T03:38:58;14.00;;;9.23;;
12433;SDS011;6281;49.038;8.372;2023-03-01T03:41:25;15.70;;;10.07;;
12433;SDS011;6281;49.038;8.372;2023-03-01T03:43:52;15.97;;;10.07;;
12433;SDS011;6281;49.038;8.372;2023-03-01T03:46:18;14.10;;;9.53;;
12433;SDS011;6281;49.038;8.372;2023-03-01T03:48:45;15.97;;;9.80;;
12433;SDS011;6281;49.038;8.372;2023-03-01T03:51:14;16.90;;;10.10;;
12433;SDS011;6281;49.038;8.372;2023-03-01T03:53:43;16.73;;;9.80;;
12433;SDS011;6281;49.038;8.372;2023-03-01T03:56:10;17.97;;;9.60;;
12433;SDS011;6281;49.038;8.372;2023-03-01T03:58:38;14.10;;;9.80;;
12433;SDS011;6281;49.038;8.372;2023-03-01T04:01:05;16.70;;;9.17;;
12433;SDS011;6281;49.038;8.372;2023-03-01T04:03:33;16.80;;;9.87;;
12433;SDS011;6281;49.038;8.372;2023-03-01T04:06:01;18.50;;;10.63;;
12433;SDS011;6281;49.038;8.372;2023-03-01T04:08:30;15.53;;;9.90;;
12433;SDS011;6281;49.038;8.372;2023-03-01T04:10:58;13.00;;;9.03;;
12433;SDS011;6281;49.038;8.372;2023-03-01T04:13:47;14.57;;;9.40;;
12433;SDS011;6281;49.038;8.372;2023-03-01T04:16:14;17.17;;;10.17;;
12433;SDS011;6281;49.038;8.372;2023-03-01T04:18:41;13.13;;;8.57;;
12433;SDS011;6281;49.038;8.372;2023-03-01T04:21:08;13.53;;;9.13;;
12433;SDS011;6281;49.038;8.372;2023-03-01T04:26:43;18.30;;;10.00;;
12433;SDS011;6281;49.038;8.372;2023-03-01T04:29:09;17.50;;;9.80;;
12433;SDS011;6281;49.038;8.372;2023-03-01T04:31:36;17.03;;;10.23;;
12433;SDS011;6281;49.038;8.372;2023-03-01T04:34:03;17.57;;;10.23;;
12433;SDS011;6281;49.038;8.372;2023-03-01T04:36:30;19.03;;;10.83;;
12433;SDS011;6281;49.038;8.372;2023-03-01T04:38:57;17.97;;;10.73;;
12433;SDS011;6281;49.038;8.372;2023-03-01T04:41:24;19.37;;;12.30;;
12433;SDS011;6281;49.038;8.372;2023-03-01T04:43:53;17.60;;;10.80;;
12433;SDS011;6281;49.038;8.372;2023-03-01T04:46:20;16.40;;;10.70;;
12433;SDS011;6281;49.038;8.372;2023-03-01T04:48:47;19.00;;;10.63;;
12433;SDS011;6281;49.038;8.372;2023-03-01T04:51:14;17.97;;;10.00;;
12433;SDS011;6281;49.038;8.372;2023-03-01T04:53:41;18.63;;;10.30;;
12433;SDS011;6281;49.038;8.372;2023-03-01T04:56:09;15.33;;;9.57;;
12433;SDS011;6281;49.038;8.372;2023-03-01T04:58:36;17.40;;;10.23;;
12433;SDS011;6281;49.038;8.372;2023-03-01T05:01:09;17.52;;;10.23;;
12433;SDS011;6281;49.038;8.372;2023-03-01T05:03:40;17.95;;;11.07;;
12433;SDS011;6281;49.038;8.372;2023-03-01T05:06:07;19.50;;;11.20;;
12433;SDS011;6281;49.038;8.372;2023-03-01T05:08:34;20.83;;;10.97;;
12433;SDS011;6281;49.038;8.372;2023-03-01T05:11:03;18.67;;;10.50;;
12433;SDS011;6281;49.038;8.372;2023-03-01T05:13:30;19.93;;;11.13;;
12433;SDS011;6281;49.038;8.372;2023-03-01T05:15:58;19.90;;;11.03;;
12433;SDS011;6281;49.038;8.372;2023-03-01T05:18:27;17.57;;;11.17;;
12433;SDS011;6281;49.038;8.372;2023-03-01T05:21:01;19.00;;;10.80;;
12433;SDS011;6281;49.038;8.372;2023-03-01T05:23:43;21.73;;;11.80;;
12433;SDS011;6281;49.038;8.372;2023-03-01T05:26:11;19.60;;;10.20;;
12433;SDS011;6281;49.038;8.372;2023-03-01T05:28:39;17.20;;;10.60;;
12433;SDS011;6281;49.038;8.372;2023-03-01T05:31:06;17.67;;;10.97;;
12433;SDS011;6281;49.038;8.372;2023-03-01T05:33:36;20.60;;;11.97;;
12433;SDS011;6281;49.038;8.372;2023-03-01T05:36:04;17.17;;;10.43;;
12433;SDS011;6281;49.038;8.372;2023-03-01T05:38:32;19.83;;;10.57;;
12433;SDS011;6281;49.038;8.372;2023-03-01T05:40:59;20.83;;;10.83;;
12433;SDS011;6281;49.038;8.372;2023-03-01T05:43:28;20.47;;;10.83;;
12433;SDS011;6281;49.038;8.372;2023-03-01T05:45:57;20.30;;;10.87;;
12433;SDS011;6281;49.038;8.372;2023-03-01T05:48:24;19.00;;;11.23;;
12433;SDS011;6281;49.038;8.372;2023-03-01T05:50:53;17.73;;;10.57;;
12433;SDS011;6281;49.038;8.372;2023-03-01T05:53:20;18.67;;;11.33;;
12433;SDS011;6281;49.038;8.372;2023-03-01T05:55:47;19.97;;;11.77;;
12433;SDS011;6281;49.038;8.372;2023-03-01T05:58:15;15.97;;;10.23;;
12433;SDS011;6281;49.038;8.372;2023-03-01T06:00:44;20.43;;;11.17;;
12433;SDS011;6281;49.038;8.372;2023-03-01T06:03:13;19.73;;;11.37;;
12433;SDS011;6281;49.038;8.372;2023-03-01T06:05:41;17.33;;;10.73;;
12433;SDS011;6281;49.038;8.372;2023-03-01T06:08:10;21.00;;;11.07;;
12433;SDS011;6281;49.038;8.372;2023-03-01T06:10:38;19.07;;;11.57;;
12433;SDS011;6281;49.038;8.372;2023-03-01T06:13:05;19.13;;;11.10;;
12433;SDS011;6281;49.038;8.372;2023-03-01T06:15:32;18.07;;;11.07;;
12433;SDS011;6281;49.038;8.372;2023-03-01T06:17:59;20.13;;;11.43;;
12433;SDS011;6281;49.038;8.372;2023-03-01T06:20:27;18.47;;;11.37;;
12433;SDS011;6281;49.038;8.372;2023-03-01T06:23:05;19.00;;;10.50;;
12433;SDS011;6281;49.038;8.372;2023-03-01T06:25:33;17.60;;;10.90;;
12433;SDS011;6281;49.038;8.372;2023-03-01T06:28:01;19.47;;;10.83;;
12433;SDS011;6281;49.038;8.372;2023-03-01T06:30:29;20.67;;;11.37;;
12433;SDS011;6281;49.038;8.372;2023-03-01T06:32:57;22.10;;;12.37;;
12433;SDS011;6281;49.038;8.372;2023-03-01T06:35:26;22.57;;;12.20;;
12433;SDS011;6281;49.038;8.372;2023-03-01T06:37:54;18.87;;;11.27;;
12433;SDS011;6281;49.038;8.372;2023-03-01T06:40:22;23.93;;;12.30;;
12433;SDS011;6281;49.038;8.372;2023-03-01T06:42:51;17.67;;;10.47;;
12433;SDS011;6281;49.038;8.372;2023-03-01T06:45:18;21.37;;;12.03;;
12433;SDS011;6281;49.038;8.372;2023-03-01T06:47:46;20.27;;;11.80;;
12433;SDS011;6281;49.038;8.372;2023-03-01T06:50:14;19.40;;;11.30;;
12433;SDS011;6281;49.038;8.372;2023-03-01T06:52:41;20.67;;;11.53;;
12433;SDS011;6281;49.038;8.372;2023-03-01T06:55:09;21.67;;;12.07;;
12433;SDS011;6281;49.038;8.372;2023-03-01T06:57:37;21.43;;;12.53;;
12433;SDS011;6281;49.038;8.372;2023-03-01T07:00:05;22.53;;;12.53;;
12433;SDS011;6281;49.038;8.372;2023-03-01T07:02:33;24.87;;;12.07;;
12433;SDS011;6281;49.038;8.372;2023-03-01T07:05:00;23.80;;;12.83;;
12433;SDS011;6281;49.038;8.372;2023-03-01T07:07:26;18.97;;;11.47;;
12433;SDS011;6281;49.038;8.372;2023-03-01T07:09:53;20.80;;;13.40;;
12433;SDS011;6281;49.038;8.372;2023-03-01T07:12:20;22.43;;;13.23;;
12433;SDS011;6281;49.038;8.372;2023-03-01T07:14:47;21.90;;;13.33;;
12433;SDS011;6281;49.038;8.372;2023-03-01T07:17:15;26.23;;;12.17;;
12433;SDS011;6281;49.038;8.372;2023-03-01T07:19:43;21.53;;;12.57;;
12433;SDS011;6281;49.038;8.372;2023-03-01T07:24:59;25.70;;;13.07;;
12433;SDS011;6281;49.038;8.372;2023-03-01T07:27:26;21.27;;;12.20;;
12433;SDS011;6281;49.038;8.372;2023-03-01T07:29:52;21.97;;;12.33;;
12433;SDS011;6281;49.038;8.372;2023-03-01T07:32:21;22.67;;;12.67;;
12433;SDS011;6281;49.038;8.372;2023-03-01T07:34:48;21.93;;;13.43;;
12433;SDS011;6281;49.038;8.372;2023-03-01T07:37:15;23.10;;;13.23;;
12433;SDS011;6281;49.038;8.372;2023-03-01T07:39:42;23.17;;;13.57;;
12433;SDS011;6281;49.038;8.372;2023-03-01T07:42:09;25.33;;;12.30;;
12433;SDS011;6281;49.038;8.372;2023-03-01T07:44:36;24.10;;;13.07;;
12433;SDS011;6281;49.038;8.372;2023-03-01T07:47:02;25.20;;;13.63;;
12433;SDS011;6281;49.038;8.372;2023-03-01T07:49:31;23.80;;;13.70;;
12433;SDS011;6281;49.038;8.372;2023-03-01T07:51:58;22.87;;;12.27;;
12433;SDS011;6281;49.038;8.372;2023-03-01T07:54:25;19.07;;;12.57;;
12433;SDS011;6281;49.038;8.372;2023-03-01T07:56:52;21.93;;;12.40;;
12433;SDS011;6281;49.038;8.372;2023-03-01T07:59:19;23.60;;;12.90;;
12433;SDS011;6281;49.038;8.372;2023-03-01T08:01:48;24.50;;;13.90;;
12433;SDS011;6281;49.038;8.372;2023-03-01T08:04:16;26.07;;;13.87;;
12433;SDS011;6281;49.038;8.372;2023-03-01T08:06:44;20.40;;;13.10;;
12433;SDS011;6281;49.038;8.372;2023-03-01T08:09:11;23.57;;;13.37;;
12433;SDS011;6281;49.038;8.372;2023-03-01T08:11:38;21.33;;;12.20;;
12433;SDS011;6281;49.038;8.372;2023-03-01T08:14:05;24.03;;;13.27;;
12433;SDS011;6281;49.038;8.372;2023-03-01T08:16:32;19.23;;;11.33;;
12433;SDS011;6281;49.038;8.372;2023-03-01T08:19:03;22.80;;;12.80;;
12433;SDS011;6281;49.038;8.372;2023-03-01T08:24:18;22.97;;;13.90;;
12433;SDS011;6281;49.038;8.372;2023-03-01T08:26:45;25.07;;;12.23;;
12433;SDS011;6281;49.038;8.372;2023-03-01T08:29:12;23.80;;;14.50;;
12433;SDS011;6281;49.038;8.372;2023-03-01T08:31:39;21.47;;;12.63;;
12433;SDS011;6281;49.038;8.372;2023-03-01T08:34:07;24.33;;;12.30;;
12433;SDS011;6281;49.038;8.372;2023-03-01T08:36:37;23.13;;;12.97;;
12433;SDS011;6281;49.038;8.372;2023-03-01T08:39:06;18.87;;;11.27;;
12433;SDS011;6281;49.038;8.372;2023-03-01T08:41:35;25.27;;;13.57;;
12433;SDS011;6281;49.038;8.372;2023-03-01T08:44:02;20.17;;;12.77;;
12433;SDS011;6281;49.038;8.372;2023-03-01T08:46:30;22.73;;;13.07;;
12433;SDS011;6281;49.038;8.372;2023-03-01T08:48:58;27.97;;;14.17;;
12433;SDS011;6281;49.038;8.372;2023-03-01T08:51:26;32.90;;;16.30;;
12433;SDS011;6281;49.038;8.372;2023-03-01T08:57:17;19.10;;;11.73;;
12433;SDS011;6281;49.038;8.372;2023-03-01T08:59:44;19.83;;;12.27;;
12433;SDS011;6281;49.038;8.372;2023-03-01T09:02:12;20.40;;;12.70;;
12433;SDS011;6281;49.038;8.372;2023-03-01T09:04:40;20.17;;;12.03;;
12433;SDS011;6281;49.038;8.372;2023-03-01T09:07:07;21.20;;;13.47;;
12433;SDS011;6281;49.038;8.372;2023-03-01T09:09:35;21.73;;;12.70;;
12433;SDS011;6281;49.038;8.372;2023-03-01T09:12:02;18.80;;;11.70;;
12433;SDS011;6281;49.038;8.372;2023-03-01T09:14:31;19.00;;;12.30;;
12433;SDS011;6281;49.038;8.372;2023-03-01T09:16:58;19.67;;;13.83;;
12433;SDS011;6281;49.038;8.372;2023-03-01T09:19:27;20.97;;;12.40;;
12433;SDS011;6281;49.038;8.372;2023-03-01T09:21:54;23.57;;;13.03;;
12433;SDS011;6281;49.038;8.372;2023-03-01T09:24:23;19.20;;;13.03;;
12433;SDS011;6281;49.038;8.372;2023-03-01T09:26:52;20.23;;;13.30;;
12433;SDS011;6281;49.038;8.372;2023-03-01T09:29:20;18.33;;;13.13;;
12433;SDS011;6281;49.038;8.372;2023-03-01T09:31:49;18.07;;;13.40;;
12433;SDS011;6281;49.038;8.372;2023-03-01T09:34:25;19.17;;;13.80;;
12433;SDS011;6281;49.038;8.372;2023-03-01T09:36:52;17.90;;;12.63;;
12433;SDS011;6281;49.038;8.372;2023-03-01T09:39:19;20.13;;;13.03;;
12433;SDS011;6281;49.038;8.372;2023-03-01T09:41:48;18.50;;;13.87;;
12433;SDS011;6281;49.038;8.372;2023-03-01T09:44:25;19.27;;;13.07;;
12433;SDS011;6281;49.038;8.372;2023-03-01T09:46:58;20.50;;;14.00;;
12433;SDS011;6281;49.038;8.372;2023-03-01T09:49:27;19.47;;;13.53;;
12433;SDS011;6281;49.038;8.372;2023-03-01T09:51:57;24.90;;;14.37;;
12433;SDS011;6281;49.038;8.372;2023-03-01T09:54:27;20.33;;;13.07;;
12433;SDS011;6281;49.038;8.372;2023-03-01T09:56:59;19.07;;;13.00;;
12433;SDS011;6281;49.038;8.372;2023-03-01T09:59:34;19.40;;;12.90;;
12433;SDS011;6281;49.038;8.372;2023-03-01T10:02:21;20.00;;;13.57;;
12433;SDS011;6281;49.038;8.372;2023-03-01T10:04:53;21.70;;;13.17;;
12433;SDS011;6281;49.038;8.372;2023-03-01T10:07:27;24.30;;;14.00;;
12433;SDS011;6281;49.038;8.372;2023-03-01T10:09:59;22.37;;;14.00;;
12433;SDS011;6281;49.038;8.372;2023-03-01T10:12:31;22.33;;;13.57;;
12433;SDS011;6281;49.038;8.372;2023-03-01T10:15:00;25.07;;;13.83;;
12433;SDS011;6281;49.038;8.372;2023-03-01T10:17:35;23.10;;;13.67;;
12433;SDS011;6281;49.038;8.372;2023-03-01T10:20:14;19.60;;;13.70;;
12433;SDS011;6281;49.038;8.372;2023-03-01T10:22:45;21.87;;;13.90;;
12433;SDS011;6281;49.038;8.372;2023-03-01T10:25:15;22.60;;;14.27;;
12433;SDS011;6281;49.038;8.372;2023-03-01T10:27:49;24.40;;;14.87;;
12433;SDS011;6281;49.038;8.372;2023-03-01T10:30:19;24.57;;;14.33;;
12433;SDS011;6281;49.038;8.372;2023-03-01T10:32:49;22.70;;;13.73;;
12433;SDS011;6281;49.038;8.372;2023-03-01T10:39:01;22.03;;;14.33;;
12433;SDS011;6281;49.038;8.372;2023-03-01T10:45:16;21.43;;;13.83;;
12433;SDS011;6281;49.038;8.372;2023-03-01T10:48:03;23.63;;;14.40;;
12433;SDS011;6281;49.038;8.372;2023-03-01T10:50:48;23.13;;;15.17;;
12433;SDS011;6281;49.038;8.372;2023-03-01T10:53:23;20.80;;;14.00;;
12433;SDS011;6281;49.038;8.372;2023-03-01T10:55:58;21.00;;;12.93;;
12433;SDS011;6281;49.038;8.372;2023-03-01T10:58:27;23.37;;;13.63;;
12433;SDS011;6281;49.038;8.372;2023-03-01T11:00:55;20.83;;;13.17;;
12433;SDS011;6281;49.038;8.372;2023-03-01T11:03:24;21.17;;;13.93;;
12433;SDS011;6281;49.038;8.372;2023-03-01T11:05:57;24.03;;;15.03;;
12433;SDS011;6281;49.038;8.372;2023-03-01T11:08:35;19.53;;;13.77;;
12433;SDS011;6281;49.038;8.372;2023-03-01T11:13:57;20.57;;;14.17;;
12433;SDS011;6281;49.038;8.372;2023-03-01T11:16:27;21.23;;;13.70;;
12433;SDS011;6281;49.038;8.372;2023-03-01T11:19:00;20.63;;;14.23;;
12433;SDS011;6281;49.038;8.372;2023-03-01T11:21:45;21.83;;;14.40;;
12433;SDS011;6281;49.038;8.372;2023-03-01T11:24:18;18.27;;;13.43;;
12433;SDS011;6281;49.038;8.372;2023-03-01T11:26:47;18.70;;;13.53;;
12433;SDS011;6281;49.038;8.372;2023-03-01T11:29:21;18.07;;;13.17;;
12433;SDS011;6281;49.038;8.372;2023-03-01T11:31:55;21.07;;;13.97;;
12433;SDS011;6281;49.038;8.372;2023-03-01T11:34:31;19.93;;;13.57;;
12433;SDS011;6281;49.038;8.372;2023-03-01T11:37:08;20.40;;;14.87;;
12433;SDS011;6281;49.038;8.372;2023-03-01T11:39:43;18.90;;;13.80;;
12433;SDS011;6281;49.038;8.372;2023-03-01T11:42:17;19.53;;;14.10;;
12433;SDS011;6281;49.038;8.372;2023-03-01T11:44:49;18.60;;;14.23;;
12433;SDS011;6281;49.038;8.372;2023-03-01T11:47:26;19.47;;;14.53;;
12433;SDS011;6281;49.038;8.372;2023-03-01T11:52:55;21.40;;;13.67;;
12433;SDS011;6281;49.038;8.372;2023-03-01T11:55:34;19.73;;;13.47;;
12433;SDS011;6281;49.038;8.372;2023-03-01T11:58:20;20.10;;;14.30;;
12433;SDS011;6281;49.038;8.372;2023-03-01T12:01:01;17.73;;;13.30;;
12433;SDS011;6281;49.038;8.372;2023-03-01T12:03:41;22.20;;;13.23;;
12433;SDS011;6281;49.038;8.372;2023-03-01T12:06:23;19.13;;;13.80;;
12433;SDS011;6281;49.038;8.372;2023-03-01T12:09:01;20.37;;;14.47;;
12433;SDS011;6281;49.038;8.372;2023-03-01T12:11:43;20.07;;;15.00;;
12433;SDS011;6281;49.038;8.372;2023-03-01T12:14:23;19.83;;;14.23;;
12433;SDS011;6281;49.038;8.372;2023-03-01T12:17:09;16.33;;;12.60;;
12433;SDS011;6281;49.038;8.372;2023-03-01T12:20:11;19.10;;;14.97;;
12433;SDS011;6281;49.038;8.372;2023-03-01T12:22:51;18.50;;;13.93;;
12433;SDS011;6281;49.038;8.372;2023-03-01T12:25:39;23.93;;;14.57;;
12433;SDS011;6281;49.038;8.372;2023-03-01T12:28:18;18.93;;;13.83;;
12433;SDS011;6281;49.038;8.372;2023-03-01T12:33:45;20.33;;;13.37;;
12433;SDS011;6281;49.038;8.372;2023-03-01T12:36:42;20.43;;;13.77;;
12433;SDS011;6281;49.038;8.372;2023-03-01T12:39:23;20.00;;;13.33;;
12433;SDS011;6281;49.038;8.372;2023-03-01T12:42:01;16.60;;;13.63;;
12433;SDS011;6281;49.038;8.372;2023-03-01T12:47:31;23.00;;;15.33;;
12433;SDS011;6281;49.038;8.372;2023-03-01T12:50:11;19.77;;;14.30;;
12433;SDS011;6281;49.038;8.372;2023-03-01T12:52:46;23.93;;;15.00;;
12433;SDS011;6281;49.038;8.372;2023-03-01T12:55:20;20.97;;;13.83;;
12433;SDS011;6281;49.038;8.372;2023-03-01T12:57:56;21.00;;;14.53;;
12433;SDS011;6281;49.038;8.372;2023-03-01T13:00:30;21.13;;;14.57;;
12433;SDS011;6281;49.038;8.372;2023-03-01T13:03:06;17.93;;;14.17;;
12433;SDS011;6281;49.038;8.372;2023-03-01T13:05:46;19.17;;;14.03;;
12433;SDS011;6281;49.038;8.372;2023-03-01T13:08:22;21.37;;;15.53;;
12433;SDS011;6281;49.038;8.372;2023-03-01T13:10:57;19.70;;;14.23;;
12433;SDS011;6281;49.038;8.372;2023-03-01T13:13:27;17.83;;;13.80;;
12433;SDS011;6281;49.038;8.372;2023-03-01T13:15:55;17.30;;;13.67;;
12433;SDS011;6281;49.038;8.372;2023-03-01T13:18:32;18.70;;;14.00;;
12433;SDS011;6281;49.038;8.372;2023-03-01T13:21:02;21.97;;;14.57;;
12433;SDS011;6281;49.038;8.372;2023-03-01T13:23:32;19.77;;;13.93;;
12433;SDS011;6281;49.038;8.372;2023-03-01T13:26:13;19.47;;;14.30;;
12433;SDS011;6281;49.038;8.372;2023-03-01T13:37:31;17.43;;;13.40;;
12433;SDS011;6281;49.038;8.372;2023-03-01T13:45:56;18.47;;;13.53;;
12433;SDS011;6281;49.038;8.372;2023-03-01T13:48:25;17.43;;;13.43;;
12433;SDS011;6281;49.038;8.372;2023-03-01T13:50:54;17.30;;;13.23;;
12433;SDS011;6281;49.038;8.372;2023-03-01T13:53:26;24.40;;;14.73;;
12433;SDS011;6281;49.038;8.372;2023-03-01T13:55:56;17.70;;;13.97;;
12433;SDS011;6281;49.038;8.372;2023-03-01T13:58:27;19.23;;;13.13;;
12433;SDS011;6281;49.038;8.372;2023-03-01T14:00:57;16.10;;;12.67;;
12433;SDS011;6281;49.038;8.372;2023-03-01T14:03:25;16.23;;;13.53;;
12433;SDS011;6281;49.038;8.372;2023-03-01T14:08:43;19.30;;;13.20;;
12433;SDS011;6281;49.038;8.372;2023-03-01T14:14:34;18.60;;;12.50;;
12433;SDS011;6281;49.038;8.372;2023-03-01T14:17:17;15.97;;;13.13;;
12433;SDS011;6281;49.038;8.372;2023-03-01T14:20:09;16.90;;;13.00;;
12433;SDS011;6281;49.038;8.372;2023-03-01T14:22:40;16.57;;;12.40;;
12433;SDS011;6281;49.038;8.372;2023-03-01T14:25:17;18.93;;;13.40;;
12433;SDS011;6281;49.038;8.372;2023-03-01T14:27:54;18.07;;;12.70;;
12433;SDS011;6281;49.038;8.372;2023-03-01T14:30:30;16.73;;;11.83;;
12433;SDS011;6281;49.038;8.372;2023-03-01T14:33:00;17.17;;;13.23;;
12433;SDS011;6281;49.038;8.372;2023-03-01T14:35:29;17.00;;;11.67;;
12433;SDS011;6281;49.038;8.372;2023-03-01T14:37:58;17.50;;;12.47;;
12433;SDS011;6281;49.038;8.372;2023-03-01T14:40:26;14.30;;;11.47;;
12433;SDS011;6281;49.038;8.372;2023-03-01T14:42:55;15.87;;;12.47;;
12433;SDS011;6281;49.038;8.372;2023-03-01T14:45:28;15.20;;;11.90;;
12433;SDS011;6281;49.038;8.372;2023-03-01T14:47:58;16.70;;;12.23;;
12433;SDS011;6281;49.038;8.372;2023-03-01T14:50:27;16.00;;;12.67;;
12433;SDS011;6281;49.038;8.372;2023-03-01T14:52:57;17.63;;;13.23;;
12433;SDS011;6281;49.038;8.372;2023-03-01T14:55:26;16.27;;;12.30;;
12433;SDS011;6281;49.038;8.372;2023-03-01T14:57:57;16.83;;;12.03;;
12433;SDS011;6281;49.038;8.372;2023-03-01T15:00:25;17.57;;;12.73;;
12433;SDS011;6281;49.038;8.372;2023-03-01T15:02:56;18.30;;;12.40;;
12433;SDS011;6281;49.038;8.372;2023-03-01T15:05:29;17.57;;;12.70;;
12433;SDS011;6281;49.038;8.372;2023-03-01T15:07:57;17.07;;;12.80;;
12433;SDS011;6281;49.038;8.372;2023-03-01T15:10:27;18.10;;;13.13;;
12433;SDS011;6281;49.038;8.372;2023-03-01T15:12:55;16.40;;;11.67;;
12433;SDS011;6281;49.038;8.372;2023-03-01T15:18:13;17.47;;;12.27;;
12433;SDS011;6281;49.038;8.372;2023-03-01T15:20:43;20.63;;;12.77;;
12433;SDS011;6281;49.038;8.372;2023-03-01T15:23:18;16.97;;;12.13;;
12433;SDS011;6281;49.038;8.372;2023-03-01T15:25:47;17.23;;;13.10;;
12433;SDS011;6281;49.038;8.372;2023-03-01T15:28:22;19.33;;;13.73;;
12433;SDS011;6281;49.038;8.372;2023-03-01T15:30:57;17.83;;;14.07;;
12433;SDS011;6281;49.038;8.372;2023-03-01T15:33:32;17.30;;;12.83;;
12433;SDS011;6281;49.038;8.372;2023-03-01T15:36:02;18.83;;;13.33;;
12433;SDS011;6281;49.038;8.372;2023-03-01T15:38:51;18.93;;;13.63;;
12433;SDS011;6281;49.038;8.372;2023-03-01T15:41:23;16.77;;;12.90;;
12433;SDS011;6281;49.038;8.372;2023-03-01T15:43:52;15.00;;;12.00;;
12433;SDS011;6281;49.038;8.372;2023-03-01T15:46:22;17.10;;;12.40;;
12433;SDS011;6281;49.038;8.372;2023-03-01T15:48:53;19.20;;;12.90;;
12433;SDS011;6281;49.038;8.372;2023-03-01T15:51:26;18.47;;;12.90;;
12433;SDS011;6281;49.038;8.372;2023-03-01T15:53:56;17.73;;;12.10;;
12433;SDS011;6281;49.038;8.372;2023-03-01T15:56:26;21.80;;;12.60;;
12433;SDS011;6281;49.038;8.372;2023-03-01T15:58:53;19.40;;;12.70;;